Terminal Aerodrome Forecast
Issued by NWS

Home | Current Version | Previous Version | Text Only | Print | Product List | Glossary On
Versions: 1 2 3 4 5 6 7 8 9 10 11 12 13 14 15
000
FTUS43 KIND 242320
TAFBMG
TAF
KBMG 242320Z 2500/2524 09006KT P6SM FEW150
     FM250400 12006KT P6SM SCT200
     FM251100 13005KT P6SM BKN080
     FM251400 15006KT P6SM SCT130
      AMD LTD TO CLD VIS AND WIND 2501/2513=

USA.gov is the U.S. government's official web portal to all federal, state and local government web resources and services.